Time;durP1;ratioP1;P1;durP2;ratioP2;P2;SDS_P1;SDS_P2;PMS_P1;PMS_P2;Temp;Humidity;BMP_temperature;BMP_pressure;BME280_temperature;BME280_humidity;BME280_pressure;Samples;Min_cycle;Max_cycle;Signal;HPM_P1;HPM_P2
2023/05/16 00:01:28;;;;;;;;;;;;;;;21.67;31.11;97812.53;5036286;28;977;-75
2023/05/16 00:03:55;;;;;;;;;;;;;;;22.06;30.78;97813.38;5019653;28;1902;-75
2023/05/16 00:06:21;;;;;;;;;;;;;;;22.48;29.96;97793.41;5036464;28;1006;-76
2023/05/16 00:08:47;;;;;;;;;;;;;;;21.91;30.90;97801.69;5052848;28;1201;-75
2023/05/16 00:11:13;;;;;;;;;;;;;;;21.70;31.01;97802.34;5090646;28;974;-76
2023/05/16 00:13:41;;;;;;;;;;;;;;;21.24;31.72;97798.78;5073809;28;1211;-75
2023/05/16 00:16:08;;;;;;;;;;;;;;;21.48;31.17;97786.00;5072885;28;989;-76
2023/05/16 00:18:36;;;;;;;;;;;;;;;21.29;31.75;97796.19;5089566;28;911;-75
2023/05/16 00:21:05;;;;;;;;;;;;;;;21.41;31.20;97791.09;5073092;28;1016;-76
2023/05/16 00:23:31;;;;;;;;;;;;;;;21.35;31.53;97787.19;5056379;28;1002;-75
2023/05/16 00:25:56;;;;;;;;;;;;;;;21.33;31.25;97779.94;5057627;28;1963;-75
2023/05/16 00:28:22;;;;;;;;;;;;;;;21.48;31.02;97791.66;5073052;28;1087;-76
2023/05/16 00:30:47;;;;;;;;;;;;;;;21.61;30.79;97793.75;5058419;28;952;-75
2023/05/16 00:33:14;;;;;;;;;;;;;;;21.89;30.59;97803.41;5089812;28;970;-76
2023/05/16 00:35:40;;;;;;;;;;;;;;;22.37;30.54;97788.09;5057935;28;883;-76
2023/05/16 00:38:06;;;;;;;;;;;;;;;22.44;30.41;97798.44;5089934;28;954;-75
2023/05/16 00:40:31;;;;;;;;;;;;;;;21.89;30.80;97792.06;5072918;28;1113;-76
2023/05/16 00:42:57;;;;;;;;;;;;;;;21.62;30.95;97790.44;5089885;28;1130;-75
2023/05/16 00:45:23;;;;;;;;;;;;;;;21.68;30.75;97793.50;5056660;28;1971;-75
2023/05/16 00:47:49;;;;;;;;;;;;;;;21.67;30.79;97787.06;5089492;28;1044;-75
2023/05/16 00:50:14;;;;;;;;;;;;;;;21.43;31.39;97788.59;5056224;28;946;-76
2023/05/16 00:52:40;;;;;;;;;;;;;;;21.62;30.89;97790.44;5089821;28;961;-75
2023/05/16 00:55:05;;;;;;;;;;;;;;;21.59;31.04;97797.00;5089419;28;951;-75
2023/05/16 00:57:33;;;;;;;;;;;;;;;21.41;31.38;97791.88;5089393;28;985;-76
2023/05/16 00:59:58;;;;;;;;;;;;;;;21.43;31.33;97789.38;5056119;28;1143;-76
2023/05/16 01:02:27;;;;;;;;;;;;;;;21.50;30.91;97782.69;5089918;28;910;-75
2023/05/16 01:04:52;;;;;;;;;;;;;;;21.30;31.36;97783.69;5071833;28;1894;-75
2023/05/16 01:07:18;;;;;;;;;;;;;;;21.33;31.42;97785.59;5094625;28;1002;-75
2023/05/16 01:09:43;;;;;;;;;;;;;;;21.70;31.08;97791.81;5037802;28;1458;-76
2023/05/16 01:12:24;;;;;;;;;;;;;;;22.29;30.53;97786.75;5037844;28;1302;-76
2023/05/16 01:15:09;;;;;;;;;;;;;;;22.52;30.42;97782.75;5054212;28;1091;-76
2023/05/16 01:17:43;;;;;;;;;;;;;;;22.15;30.48;97782.34;5038075;28;1355;-75
2023/05/16 01:20:27;;;;;;;;;;;;;;;21.51;31.41;97784.31;5037638;28;1061;-76
2023/05/16 01:23:08;;;;;;;;;;;;;;;21.39;31.64;97779.41;5014478;28;984;-76
2023/05/16 01:25:52;;;;;;;;;;;;;;;21.61;31.28;97788.88;5014815;28;2124;-76
2023/05/16 01:28:18;;;;;;;;;;;;;;;21.39;31.72;97787.88;5014232;28;1071;-75
2023/05/16 01:30:43;;;;;;;;;;;;;;;21.62;31.28;97786.81;4982017;28;1129;-75
2023/05/16 01:33:09;;;;;;;;;;;;;;;21.57;31.25;97783.31;5014484;28;1035;-77
2023/05/16 01:35:55;;;;;;;;;;;;;;;21.37;31.52;97790.38;4997732;28;1232;-75
2023/05/16 01:38:23;;;;;;;;;;;;;;;21.41;31.37;97791.09;4978124;28;1126;-75
2023/05/16 01:40:58;;;;;;;;;;;;;;;21.73;30.76;97790.91;5012197;28;1156;-76
2023/05/16 01:43:30;;;;;;;;;;;;;;;21.44;31.24;97788.13;4998309;28;938;-75
2023/05/16 01:45:57;;;;;;;;;;;;;;;21.29;31.60;97790.53;4998267;28;1910;-75
2023/05/16 01:48:23;;;;;;;;;;;;;;;21.27;31.70;97790.22;4981286;28;953;-76
2023/05/16 01:50:53;;;;;;;;;;;;;;;21.34;31.26;97786.41;4981854;28;1124;-76
2023/05/16 01:53:19;;;;;;;;;;;;;;;21.16;31.83;97778.41;5024866;28;1542;-75
2023/05/16 01:55:48;;;;;;;;;;;;;;;21.55;31.26;97784.97;5037327;28;1028;-75
2023/05/16 01:58:16;;;;;;;;;;;;;;;21.43;31.39;97788.59;5033822;28;1365;-75
2023/05/16 02:00:42;;;;;;;;;;;;;;;21.56;31.11;97780.94;5033437;28;1051;-75
2023/05/16 02:03:07;;;;;;;;;;;;;;;21.23;31.54;97781.03;5034123;28;1141;-75
2023/05/16 02:05:33;;;;;;;;;;;;;;;21.30;31.37;97775.19;5017151;28;1910;-76
2023/05/16 02:07:59;;;;;;;;;;;;;;;22.28;30.66;97771.81;5017225;28;1256;-76
2023/05/16 02:10:25;;;;;;;;;;;;;;;22.51;30.33;97776.28;5050379;28;1261;-75
2023/05/16 02:12:51;;;;;;;;;;;;;;;22.74;30.11;97771.47;5017063;28;1122;-75
2023/05/16 02:15:16;;;;;;;;;;;;;;;22.15;31.00;97771.00;5016929;28;1229;-76
2023/05/16 02:17:42;;;;;;;;;;;;;;;21.63;31.67;97777.88;5013560;28;1133;-75
2023/05/16 02:20:08;;;;;;;;;;;;;;;21.73;31.47;97784.47;5013805;28;1016;-75
2023/05/16 02:22:35;;;;;;;;;;;;;;;21.45;31.61;97774.75;5013574;28;965;-75
2023/05/16 02:25:00;;;;;;;;;;;;;;;21.45;31.79;97774.75;5014000;28;1902;-77
2023/05/16 02:27:26;;;;;;;;;;;;;;;21.62;31.40;97772.66;4997237;28;1111;-75
2023/05/16 02:29:52;;;;;;;;;;;;;;;21.49;31.87;97770.59;5028822;28;1296;-76
2023/05/16 02:32:17;;;;;;;;;;;;;;;21.50;31.48;97772.19;5033537;28;1720;-76
2023/05/16 02:34:43;;;;;;;;;;;;;;;21.44;31.77;97773.19;5000617;28;1272;-75
2023/05/16 02:37:08;;;;;;;;;;;;;;;21.26;31.99;97771.66;5033398;28;1001;-76
2023/05/16 02:39:34;;;;;;;;;;;;;;;21.26;31.79;97768.81;4999891;28;982;-76
2023/05/16 02:42:00;;;;;;;;;;;;;;;21.49;31.36;97761.31;5033102;28;903;-76
2023/05/16 02:44:25;;;;;;;;;;;;;;;21.31;31.89;97759.81;5033466;28;1906;-76
2023/05/16 02:46:51;;;;;;;;;;;;;;;21.55;31.09;97762.34;5033343;28;1003;-76
2023/05/16 02:49:16;;;;;;;;;;;;;;;21.66;31.00;97764.84;5049042;28;898;-76
2023/05/16 02:51:44;;;;;;;;;;;;;;;21.73;31.17;97773.91;5087525;28;955;-76
2023/05/16 02:54:09;;;;;;;;;;;;;;;21.63;31.17;97780.69;5086896;28;1047;-75
2023/05/16 02:56:36;;;;;;;;;;;;;;;21.66;30.92;97776.97;5055731;28;943;-75
2023/05/16 02:59:02;;;;;;;;;;;;;;;21.49;31.35;97776.25;5070893;28;1449;-75
2023/05/16 03:01:28;;;;;;;;;;;;;;;21.92;31.24;97780.63;5070834;28;1212;-76
2023/05/16 03:03:54;;;;;;;;;;;;;;;22.15;31.34;97788.00;5070782;28;1894;-76
2023/05/16 03:06:19;;;;;;;;;;;;;;;22.25;31.15;97772.69;5054245;28;958;-75
2023/05/16 03:08:46;;;;;;;;;;;;;;;22.21;30.71;97774.06;5087575;28;1023;-77
2023/05/16 03:11:11;;;;;;;;;;;;;;;21.95;31.13;97773.25;5070827;28;1057;-76
2023/05/16 03:13:39;;;;;;;;;;;;;;;21.77;30.68;97771.78;5087769;28;1129;-76
2023/05/16 03:16:05;;;;;;;;;;;;;;;21.79;30.74;97766.44;5070914;28;1167;-74
2023/05/16 03:18:30;;;;;;;;;;;;;;;21.57;31.02;97765.53;5053761;28;942;-74
2023/05/16 03:20:57;;;;;;;;;;;;;;;21.65;31.01;97760.41;5087526;28;936;-75
2023/05/16 03:23:22;;;;;;;;;;;;;;;21.47;31.48;97749.66;5087772;28;988;-74
2023/05/16 03:25:48;;;;;;;;;;;;;;;21.55;31.13;97751.81;5087662;28;1914;-74
2023/05/16 03:28:15;;;;;;;;;;;;;;;21.42;31.64;97747.38;5070799;28;1261;-74
2023/05/16 03:30:40;;;;;;;;;;;;;;;21.23;31.92;97758.38;5087531;28;902;-74
2023/05/16 03:33:06;;;;;;;;;;;;;;;21.50;31.36;97765.72;5087748;28;936;-74
2023/05/16 03:35:32;;;;;;;;;;;;;;;21.49;31.33;97764.13;5056493;28;1582;-74
2023/05/16 03:37:57;;;;;;;;;;;;;;;21.91;31.13;97761.22;5081300;28;1730;-74
2023/05/16 03:40:23;;;;;;;;;;;;;;;22.49;30.71;97755.34;5037237;28;1201;-75
2023/05/16 03:42:49;;;;;;;;;;;;;;;22.44;30.84;97756.69;5053819;28;974;-75
2023/05/16 03:45:15;;;;;;;;;;;;;;;22.11;31.24;97759.00;5069595;28;1909;-75
2023/05/16 03:47:41;;;;;;;;;;;;;;;21.57;31.73;97766.31;5053636;28;926;-74
2023/05/16 03:50:07;;;;;;;;;;;;;;;21.63;31.43;97780.69;5053636;28;1100;-74
2023/05/16 03:52:33;;;;;;;;;;;;;;;21.60;31.63;97792.91;5054938;28;1537;-75
2023/05/16 03:54:58;;;;;;;;;;;;;;;21.73;31.00;97809.94;5058717;28;916;-74
2023/05/16 03:57:24;;;;;;;;;;;;;;;21.67;31.08;97826.69;5090844;28;857;-73
2023/05/16 03:59:49;;;;;;;;;;;;;;;21.43;31.65;97834.66;5058865;28;959;-75
2023/05/16 04:02:15;;;;;;;;;;;;;;;21.64;31.19;97833.25;5079234;28;1331;-74
2023/05/16 04:04:40;;;;;;;;;;;;;;;21.70;31.11;97831.44;5095575;28;1910;-74
2023/05/16 04:07:06;;;;;;;;;;;;;;;21.58;31.25;97829.38;5092740;28;1745;-74
2023/05/16 04:09:32;;;;;;;;;;;;;;;21.58;31.38;97807.53;5062720;28;1325;-74
2023/05/16 04:12:00;;;;;;;;;;;;;;;21.74;30.81;97798.16;5062499;28;1614;-74
2023/05/16 04:14:26;;;;;;;;;;;;;;;21.66;30.78;97795.97;5062612;28;1463;-74
2023/05/16 04:16:51;;;;;;;;;;;;;;;21.73;30.84;97809.94;5095886;28;949;-74
2023/05/16 04:19:17;;;;;;;;;;;;;;;21.44;31.09;97813.59;5062180;28;984;-74
2023/05/16 04:21:42;;;;;;;;;;;;;;;21.99;31.06;97805.88;5076677;28;1409;-75
2023/05/16 04:24:08;;;;;;;;;;;;;;;22.46;30.78;97801.59;5099157;28;1906;-74
2023/05/16 04:26:34;;;;;;;;;;;;;;;22.54;30.61;97797.28;5116009;28;1026;-75
2023/05/16 04:29:00;;;;;;;;;;;;;;;21.84;31.63;97797.03;5042113;28;1236;-74
2023/05/16 04:31:26;;;;;;;;;;;;;;;21.44;32.11;97809.97;5055248;28;1129;-75
2023/05/16 04:33:51;;;;;;;;;;;;;;;21.51;31.97;97806.97;5022412;28;1456;-74
2023/05/16 04:36:17;;;;;;;;;;;;;;;21.63;31.42;97811.84;5018855;28;960;-75
2023/05/16 04:38:43;;;;;;;;;;;;;;;21.51;31.68;97795.63;5035552;28;981;-75
2023/05/16 04:41:08;;;;;;;;;;;;;;;21.37;31.87;97801.72;5035656;28;1068;-74
2023/05/16 04:43:34;;;;;;;;;;;;;;;21.28;31.98;97800.28;5032343;28;1502;-74
2023/05/16 04:46:00;;;;;;;;;;;;;;;21.51;31.72;97801.31;5035019;28;1914;-75
2023/05/16 04:48:25;;;;;;;;;;;;;;;21.68;31.31;97794.31;5017682;28;1057;-74
2023/05/16 04:50:51;;;;;;;;;;;;;;;21.30;31.82;97797.84;5036774;28;1648;-74
2023/05/16 04:53:17;;;;;;;;;;;;;;;21.59;31.12;97797.78;5033683;28;1576;-74
2023/05/16 04:55:42;;;;;;;;;;;;;;;21.66;31.11;97793.97;5034865;28;1851;-74
2023/05/16 04:58:08;;;;;;;;;;;;;;;21.58;30.99;97795.41;5034876;28;981;-74
2023/05/16 05:00:33;;;;;;;;;;;;;;;21.62;31.08;97792.50;5049578;28;1687;-74
2023/05/16 05:02:59;;;;;;;;;;;;;;;21.48;31.43;97785.19;5069356;28;972;-74
2023/05/16 05:05:24;;;;;;;;;;;;;;;21.63;31.06;97794.84;5057702;28;1914;-75
2023/05/16 05:07:50;;;;;;;;;;;;;;;21.66;30.85;97793.16;5034638;28;999;-74
2023/05/16 05:10:16;;;;;;;;;;;;;;;21.49;31.28;97786.78;5018218;28;1441;-74
2023/05/16 05:12:41;;;;;;;;;;;;;;;21.62;30.96;97789.66;5054045;28;1564;-74
2023/05/16 05:15:07;;;;;;;;;;;;;;;21.37;31.41;97784.72;5037822;28;1076;-75
2023/05/16 05:17:33;;;;;;;;;;;;;;;21.26;31.73;97788.63;5037906;28;993;-74
2023/05/16 05:19:58;;;;;;;;;;;;;;;21.69;30.84;97787.38;5054381;28;959;-74
2023/05/16 05:22:24;;;;;;;;;;;;;;;21.66;30.88;97791.13;5037572;28;1134;-75
2023/05/16 05:24:50;;;;;;;;;;;;;;;21.84;30.41;97785.72;5054059;28;1977;-74
2023/05/16 05:27:16;;;;;;;;;;;;;;;21.96;30.29;97786.16;5014422;28;1200;-75
2023/05/16 05:29:41;;;;;;;;;;;;;;;21.46;31.08;97788.50;5012528;28;1489;-74
2023/05/16 05:32:07;;;;;;;;;;;;;;;21.26;31.61;97797.13;5009527;28;1413;-75
2023/05/16 05:34:33;;;;;;;;;;;;;;;21.38;31.00;97797.63;5014301;28;1174;-75
2023/05/16 05:36:58;;;;;;;;;;;;;;;21.71;31.09;97799.06;4998001;28;1333;-74
2023/05/16 05:39:24;;;;;;;;;;;;;;;22.42;30.55;97800.91;5029261;28;968;-75
2023/05/16 05:41:50;;;;;;;;;;;;;;;22.35;31.01;97802.75;5034408;28;1118;-74
2023/05/16 05:44:15;;;;;;;;;;;;;;;22.12;31.25;97811.56;5016716;28;2040;-74
2023/05/16 05:46:41;;;;;;;;;;;;;;;21.89;31.67;97809.06;5034279;28;1578;-74
2023/05/16 05:49:07;;;;;;;;;;;;;;;21.63;31.68;97806.19;5017610;28;952;-74
2023/05/16 05:51:32;;;;;;;;;;;;;;;21.61;31.35;97803.03;5017570;28;1605;-74
2023/05/16 05:53:58;;;;;;;;;;;;;;;21.68;31.06;97788.63;5033893;28;883;-74
2023/05/16 05:56:23;;;;;;;;;;;;;;;21.39;31.86;97773.72;5050729;28;975;-74
2023/05/16 05:58:49;;;;;;;;;;;;;;;21.32;32.01;97772.72;4997285;28;1098;-75
2023/05/16 06:01:15;;;;;;;;;;;;;;;21.47;31.75;97772.28;4998045;28;952;-74
2023/05/16 06:03:41;;;;;;;;;;;;;;;21.45;31.47;97769.09;4984519;28;1606;-76
2023/05/16 06:06:07;;;;;;;;;;;;;;;21.55;31.31;97770.81;5020626;28;1975;-74
2023/05/16 06:08:33;;;;;;;;;;;;;;;21.65;31.25;97778.19;5036922;28;1199;-74
2023/05/16 06:10:58;;;;;;;;;;;;;;;21.39;31.74;97782.22;5036851;28;929;-73
2023/05/16 06:13:24;;;;;;;;;;;;;;;21.57;31.23;97783.31;5036695;28;1012;-74
2023/05/16 06:15:50;;;;;;;;;;;;;;;21.63;31.24;97783.53;5034801;28;1348;-74
2023/05/16 06:18:16;;;;;;;;;;;;;;;21.53;31.32;97781.81;5053230;28;1024;-75
2023/05/16 06:20:41;;;;;;;;;;;;;;;21.57;31.08;97766.31;5053499;28;1066;-75
2023/05/16 06:23:07;;;;;;;;;;;;;;;21.22;31.53;97756.81;5020341;28;1669;-74
2023/05/16 06:25:32;;;;;;;;;;;;;;;21.16;32.05;97752.94;5073029;28;1907;-74
2023/05/16 06:27:58;;;;;;;;;;;;;;;21.57;31.40;97755.00;5056507;28;1249;-74
2023/05/16 06:30:24;;;;;;;;;;;;;;;21.19;31.88;97746.41;5082798;28;1515;-74
2023/05/16 06:32:49;;;;;;;;;;;;;;;21.19;31.90;97749.22;5060050;28;1308;-74
2023/05/16 06:35:15;;;;;;;;;;;;;;;21.44;31.47;97754.16;5076589;28;1191;-75
2023/05/16 06:37:41;;;;;;;;;;;;;;;21.71;31.01;97748.09;5093279;28;1101;-74
2023/05/16 06:40:06;;;;;;;;;;;;;;;21.65;31.03;97755.56;5076731;28;1067;-74
2023/05/16 06:42:32;;;;;;;;;;;;;;;21.47;31.38;97755.31;5054963;28;1721;-76
2023/05/16 06:44:58;;;;;;;;;;;;;;;21.62;31.08;97752.84;5034646;28;1965;-74
2023/05/16 06:47:23;;;;;;;;;;;;;;;21.59;31.10;97754.53;5037961;28;993;-75
2023/05/16 06:49:49;;;;;;;;;;;;;;;21.92;31.67;97755.13;4996980;28;1622;-74
2023/05/16 06:52:15;;;;;;;;;;;;;;;22.48;31.35;97756.56;4996873;28;1004;-75
2023/05/16 06:54:41;;;;;;;;;;;;;;;22.53;31.11;97762.44;4997069;28;1063;-74
2023/05/16 06:57:07;;;;;;;;;;;;;;;22.21;31.65;97769.19;4997003;28;1064;-74
2023/05/16 06:59:33;;;;;;;;;;;;;;;21.76;32.12;97775.84;4997229;28;999;-75
2023/05/16 07:02:00;;;;;;;;;;;;;;;21.71;31.87;97776.41;5005699;28;1567;-74
2023/05/16 07:04:25;;;;;;;;;;;;;;;21.72;31.57;97782.88;5000148;28;1894;-75
2023/05/16 07:06:51;;;;;;;;;;;;;;;21.91;31.22;97789.56;5000360;28;1186;-74
2023/05/16 07:09:17;;;;;;;;;;;;;;;21.99;30.78;97785.28;5000102;28;1023;-74
2023/05/16 07:11:43;;;;;;;;;;;;;;;21.64;31.22;97787.16;5015712;28;1414;-74
2023/05/16 07:14:08;;;;;;;;;;;;;;;21.83;31.50;97794.66;5016293;28;1606;-74
2023/05/16 07:16:34;;;;;;;;;;;;;;;22.17;30.68;97785.50;5031125;28;1182;-74
2023/05/16 07:19:00;;;;;;;;;;;;;;;21.87;31.17;97788.91;5018798;28;1543;-73
2023/05/16 07:21:25;;;;;;;;;;;;;;;21.71;31.38;97795.41;5086996;28;1126;-73
2023/05/16 07:23:51;;;;;;;;;;;;;;;21.73;31.51;97790.91;5056972;28;1910;-74
2023/05/16 07:26:16;;;;;;;;;;;;;;;21.97;30.89;97784.94;5053507;28;1102;-74
2023/05/16 07:28:42;;;;;;;;;;;;;;;21.66;31.41;97787.50;5080225;28;1643;-74
2023/05/16 07:31:08;;;;;;;;;;;;;;;21.67;31.19;97781.41;5061573;28;1537;-74
2023/05/16 07:33:33;;;;;;;;;;;;;;;21.63;31.14;97779.91;5043506;28;1602;-74
2023/05/16 07:35:59;;;;;;;;;;;;;;;21.59;31.16;97780.00;5059785;28;955;-74
2023/05/16 07:38:25;;;;;;;;;;;;;;;21.31;31.61;97779.63;5092683;28;937;-74
2023/05/16 07:40:51;;;;;;;;;;;;;;;21.76;30.91;97795.69;5059215;28;2152;-74
2023/05/16 07:43:17;;;;;;;;;;;;;;;21.48;31.69;97788.81;5083254;28;1663;-74
2023/05/16 07:45:42;;;;;;;;;;;;;;;21.56;31.33;97786.59;5042640;28;1902;-74
2023/05/16 07:48:08;;;;;;;;;;;;;;;21.38;31.45;97786.31;5067414;28;898;-75
2023/05/16 07:50:34;;;;;;;;;;;;;;;21.65;31.26;97800.84;5072636;28;937;-74
2023/05/16 07:53:00;;;;;;;;;;;;;;;21.68;31.15;97799.97;5039669;28;957;-74
2023/05/16 07:55:25;;;;;;;;;;;;;;;21.47;31.28;97801.41;5055628;28;1070;-74
2023/05/16 07:57:51;;;;;;;;;;;;;;;21.49;30.87;97800.94;5072532;28;1671;-74
2023/05/16 08:00:17;;;;;;;;;;;;;;;21.37;31.51;97813.03;5039477;28;1139;-74
2023/05/16 08:02:42;;;;;;;;;;;;;;;21.38;31.46;97814.59;5039190;28;1104;-73
2023/05/16 08:05:08;;;;;;;;;;;;;;;21.66;31.11;97825.13;5039116;28;1977;-74
2023/05/16 08:07:34;;;;;;;;;;;;;;;21.35;31.75;97816.31;5039297;28;1026;-74
2023/05/16 08:09:59;;;;;;;;;;;;;;;21.34;31.73;97820.38;5039230;28;1080;-74
2023/05/16 08:12:26;;;;;;;;;;;;;;;21.47;31.36;97821.22;5039045;28;1204;-74
2023/05/16 08:14:51;;;;;;;;;;;;;;;21.39;31.64;97821.84;5018501;28;2015;-73
2023/05/16 08:17:17;;;;;;;;;;;;;;;21.45;31.21;97835.03;5019219;28;938;-74
2023/05/16 08:19:43;;;;;;;;;;;;;;;21.24;31.57;97833.56;5058395;28;1693;-73
2023/05/16 08:22:09;;;;;;;;;;;;;;;21.44;31.42;97824.13;5078099;28;926;-74
2023/05/16 08:24:34;;;;;;;;;;;;;;;22.06;31.56;97821.88;5076642;28;1898;-73
2023/05/16 08:27:00;;;;;;;;;;;;;;;22.54;31.03;97825.63;5093689;28;1063;-74
2023/05/16 08:29:26;;;;;;;;;;;;;;;22.41;31.90;97811.47;5110427;28;928;-73
2023/05/16 08:31:51;;;;;;;;;;;;;;;22.09;31.88;97826.63;5110410;28;1016;-74
2023/05/16 08:34:17;;;;;;;;;;;;;;;21.72;32.26;97811.97;5104606;28;1859;-74
2023/05/16 08:36:42;;;;;;;;;;;;;;;21.67;32.25;97815.38;5090135;28;986;-74
2023/05/16 08:39:10;;;;;;;;;;;;;;;21.61;32.10;97810.72;5072205;28;991;-74
2023/05/16 08:41:36;;;;;;;;;;;;;;;21.51;31.95;97801.31;5073133;28;1473;-75
2023/05/16 08:44:01;;;;;;;;;;;;;;;21.58;31.66;97801.06;5072779;28;1905;-74
2023/05/16 08:46:27;;;;;;;;;;;;;;;21.19;32.40;97807.81;5095333;28;975;-74
2023/05/16 08:48:53;;;;;;;;;;;;;;;21.28;32.52;97808.78;5062208;28;1678;-74
2023/05/16 08:51:18;;;;;;;;;;;;;;;21.53;31.88;97805.25;5078490;28;1105;-74
2023/05/16 08:53:45;;;;;;;;;;;;;;;21.60;31.57;97804.25;5095059;28;996;-74
2023/05/16 08:56:11;;;;;;;;;;;;;;;21.57;31.74;97800.28;5058014;28;1122;-74
2023/05/16 08:58:37;;;;;;;;;;;;;;;21.61;31.41;97803.03;5038017;28;1020;-74
2023/05/16 09:01:07;;;;;;;;;;;;;;;21.64;31.76;97801.31;5054556;28;984;-74
2023/05/16 09:03:34;;;;;;;;;;;;;;;21.58;31.56;97806.75;5037219;28;1812;-74
2023/05/16 09:06:00;;;;;;;;;;;;;;;21.67;31.65;97804.03;5037817;28;1983;-74
2023/05/16 09:08:26;;;;;;;;;;;;;;;21.51;31.82;97810.59;5038049;28;1187;-74
2023/05/16 09:10:51;;;;;;;;;;;;;;;21.63;31.56;97800.53;5070688;28;1045;-74
2023/05/16 09:13:17;;;;;;;;;;;;;;;21.66;31.63;97795.97;5037842;28;1105;-74
2023/05/16 09:15:44;;;;;;;;;;;;;;;21.72;31.13;97792.16;5037760;28;1063;-74
2023/05/16 09:18:15;;;;;;;;;;;;;;;21.32;32.12;97788.91;5005641;28;1655;-74
2023/05/16 09:20:45;;;;;;;;;;;;;;;21.58;31.42;97789.75;5047699;28;934;-73
2023/05/16 09:23:11;;;;;;;;;;;;;;;22.00;30.78;97792.50;5001165;28;1704;-74
2023/05/16 09:25:36;;;;;;;;;;;;;;;21.66;31.36;97791.13;5034409;28;1973;-74
2023/05/16 09:28:02;;;;;;;;;;;;;;;21.54;31.54;97783.41;5001901;28;1395;-74
2023/05/16 09:30:29;;;;;;;;;;;;;;;21.49;31.59;97781.13;5065326;28;1035;-74
2023/05/16 09:32:55;;;;;;;;;;;;;;;21.54;31.47;97777.72;5037791;28;954;-74
2023/05/16 09:35:20;;;;;;;;;;;;;;;21.38;31.85;97772.16;5044688;28;1730;-74
2023/05/16 09:37:46;;;;;;;;;;;;;;;21.70;31.28;97776.84;5054192;28;1256;-74
2023/05/16 09:40:12;;;;;;;;;;;;;;;21.56;31.30;97780.94;5037457;28;1302;-74
2023/05/16 09:42:38;;;;;;;;;;;;;;;22.07;31.42;97780.94;5070434;28;943;-74
2023/05/16 09:45:04;;;;;;;;;;;;;;;22.75;31.17;97778.75;5053550;28;1911;-74
2023/05/16 09:47:29;;;;;;;;;;;;;;;22.65;31.46;97777.84;5070676;28;906;-74
2023/05/16 09:49:55;;;;;;;;;;;;;;;22.45;31.38;97783.00;5070688;28;1046;-74
2023/05/16 09:52:20;;;;;;;;;;;;;;;21.80;32.69;97779.34;5084950;28;1942;-75
2023/05/16 09:54:49;;;;;;;;;;;;;;;21.66;32.93;97768.50;5090484;28;1130;-74
2023/05/16 09:57:25;;;;;;;;;;;;;;;21.66;32.75;97779.00;5056738;28;1465;-74
2023/05/16 09:59:51;;;;;;;;;;;;;;;21.60;32.49;97770.25;5072830;28;948;-74
2023/05/16 10:02:17;;;;;;;;;;;;;;;21.77;32.20;97780.28;5071061;28;1907;-74
2023/05/16 10:04:42;;;;;;;;;;;;;;;21.71;32.05;97775.59;5075618;28;1902;-74
2023/05/16 10:07:08;;;;;;;;;;;;;;;21.65;31.80;97772.53;5108656;28;1111;-74
2023/05/16 10:09:35;;;;;;;;;;;;;;;21.60;31.54;97775.94;5099986;28;1476;-74
2023/05/16 10:12:04;;;;;;;;;;;;;;;21.47;31.81;97764.59;5038465;28;972;-73
2023/05/16 10:14:32;;;;;;;;;;;;;;;21.47;31.43;97760.97;5054429;28;1059;-74
2023/05/16 10:16:57;;;;;;;;;;;;;;;21.47;31.54;97755.31;5049644;28;1956;-75
2023/05/16 10:19:23;;;;;;;;;;;;;;;21.49;31.36;97752.81;5038052;28;1136;-74
2023/05/16 10:21:51;;;;;;;;;;;;;;;21.41;31.40;97749.41;5036765;28;1132;-73
2023/05/16 10:24:17;;;;;;;;;;;;;;;21.65;30.65;97744.22;5069755;28;1977;-73
2023/05/16 10:26:42;;;;;;;;;;;;;;;21.60;30.60;97739.13;5070273;28;973;-74
2023/05/16 10:29:08;;;;;;;;;;;;;;;21.63;30.70;97746.72;5053568;28;1038;-75
2023/05/16 10:31:33;;;;;;;;;;;;;;;21.37;30.78;97734.56;5052979;28;1910;-75
2023/05/16 10:33:59;;;;;;;;;;;;;;;21.63;30.55;97738.22;5067252;28;1455;-74
2023/05/16 10:36:25;;;;;;;;;;;;;;;21.77;30.15;97740.63;5040034;28;1273;-73
2023/05/16 10:38:50;;;;;;;;;;;;;;;21.54;30.60;97740.94;5039724;28;923;-75
2023/05/16 10:41:16;;;;;;;;;;;;;;;21.52;30.88;97734.94;5040062;28;1269;-75
2023/05/16 10:43:43;;;;;;;;;;;;;;;22.07;30.22;97730.75;5056167;28;1107;-74
2023/05/16 10:46:10;;;;;;;;;;;;;;;22.06;30.99;97722.69;5040182;28;2044;-74
2023/05/16 10:48:37;;;;;;;;;;;;;;;22.16;31.23;97721.59;5039047;28;1688;-74
2023/05/16 10:51:04;;;;;;;;;;;;;;;21.58;31.71;97731.09;5013041;28;1831;-74
2023/05/16 10:53:31;;;;;;;;;;;;;;;21.38;32.07;97724.84;4993282;28;1916;-74
2023/05/16 10:55:59;;;;;;;;;;;;;;;21.57;31.36;97721.00;4997055;28;1115;-73
2023/05/16 10:58:34;;;;;;;;;;;;;;;21.62;31.37;97716.81;5016520;28;1225;-75
2023/05/16 11:01:15;;;;;;;;;;;;;;;21.80;30.89;97711.38;5033323;28;1270;-74
2023/05/16 11:03:56;;;;;;;;;;;;;;;21.50;31.06;97709.09;5036986;28;956;-74
2023/05/16 11:06:24;;;;;;;;;;;;;;;21.29;31.60;97705.66;5017084;28;1981;-74
2023/05/16 11:09:04;;;;;;;;;;;;;;;21.55;31.05;97697.22;5047421;28;1977;-74
2023/05/16 11:11:38;;;;;;;;;;;;;;;21.40;31.16;97705.38;5016950;28;1087;-73
2023/05/16 11:14:04;;;;;;;;;;;;;;;21.62;30.68;97694.19;5016990;28;1141;-74
2023/05/16 11:16:30;;;;;;;;;;;;;;;21.30;31.34;97706.50;5017378;28;1062;-74
2023/05/16 11:19:03;;;;;;;;;;;;;;;21.25;30.87;97696.50;5016812;28;1008;-74
2023/05/16 11:21:47;;;;;;;;;;;;;;;21.43;30.68;97686.69;5028498;28;959;-74
2023/05/16 11:24:31;;;;;;;;;;;;;;;21.42;30.84;97685.09;5061151;28;1902;-74
2023/05/16 11:27:00;;;;;;;;;;;;;;;21.92;30.37;97683.53;5057878;28;1061;-74
2023/05/16 11:29:27;;;;;;;;;;;;;;;22.13;30.28;97688.50;5091082;28;919;-73
2023/05/16 11:31:53;;;;;;;;;;;;;;;22.09;30.47;97687.81;5073180;28;1137;-74
2023/05/16 11:34:18;;;;;;;;;;;;;;;21.97;30.54;97685.78;5039917;28;972;-74
2023/05/16 11:36:44;;;;;;;;;;;;;;;21.87;30.37;97686.94;5056557;28;1155;-73
2023/05/16 11:39:11;;;;;;;;;;;;;;;21.71;30.63;97680.13;5048057;28;1636;-74
2023/05/16 11:41:37;;;;;;;;;;;;;;;21.71;30.23;97673.66;5059673;28;1092;-74
2023/05/16 11:44:04;;;;;;;;;;;;;;;21.40;30.79;97673.44;5076168;28;1969;-74
2023/05/16 11:46:30;;;;;;;;;;;;;;;21.52;30.54;97672.66;5059542;28;985;-74
2023/05/16 11:48:56;;;;;;;;;;;;;;;21.56;30.19;97667.69;5076227;28;1121;-74
2023/05/16 11:51:21;;;;;;;;;;;;;;;21.58;30.09;97668.81;5076279;28;1123;-74
2023/05/16 11:53:48;;;;;;;;;;;;;;;21.49;30.38;97667.88;5058723;28;1726;-74
2023/05/16 11:56:14;;;;;;;;;;;;;;;21.35;30.44;97657.00;5059554;28;1185;-74
2023/05/16 11:58:41;;;;;;;;;;;;;;;21.56;30.17;97656.38;5059213;28;1148;-73
2023/05/16 12:01:07;;;;;;;;;;;;;;;21.58;30.38;97656.69;5042729;28;1093;-73
2023/05/16 12:03:34;;;;;;;;;;;;;;;21.72;30.30;97659.06;5040531;28;894;-74
2023/05/16 12:05:59;;;;;;;;;;;;;;;22.51;29.21;97659.25;5058143;28;1987;-73
2023/05/16 12:08:25;;;;;;;;;;;;;;;21.99;30.21;97657.78;5090514;28;1933;-74
2023/05/16 12:10:51;;;;;;;;;;;;;;;22.30;29.55;97653.09;5090435;28;893;-73
2023/05/16 12:13:20;;;;;;;;;;;;;;;21.79;30.39;97652.38;5089187;28;950;-73
2023/05/16 12:15:46;;;;;;;;;;;;;;;21.66;30.42;97651.56;5090498;28;1043;-74
2023/05/16 12:18:12;;;;;;;;;;;;;;;21.77;30.23;97655.66;5090014;28;1050;-74
2023/05/16 12:20:37;;;;;;;;;;;;;;;21.45;30.71;97650.22;5073522;28;1271;-74
2023/05/16 12:23:06;;;;;;;;;;;;;;;21.22;31.10;97640.78;5089590;28;1787;-73
2023/05/16 12:25:31;;;;;;;;;;;;;;;21.54;30.36;97636.19;5056801;28;1914;-73
2023/05/16 12:27:58;;;;;;;;;;;;;;;21.59;30.07;97638.44;5090145;28;939;-74
2023/05/16 12:30:23;;;;;;;;;;;;;;;21.35;30.47;97629.53;5073412;28;899;-74
2023/05/16 12:32:54;;;;;;;;;;;;;;;21.27;30.54;97631.75;5095789;28;1740;-73
2023/05/16 12:35:20;;;;;;;;;;;;;;;21.25;30.29;97631.41;5065204;28;1360;-73
2023/05/16 12:37:46;;;;;;;;;;;;;;;21.35;30.40;97617.38;5099195;28;1029;-74
2023/05/16 12:40:12;;;;;;;;;;;;;;;21.36;30.29;97621.81;5098607;28;1818;-74
2023/05/16 12:42:37;;;;;;;;;;;;;;;21.54;29.79;97620.00;5082008;28;1712;-74
2023/05/16 12:45:04;;;;;;;;;;;;;;;21.61;29.78;97619.00;5094012;28;1910;-74
2023/05/16 12:47:36;;;;;;;;;;;;;;;21.52;29.77;97616.03;5081768;28;1060;-73
2023/05/16 12:50:03;;;;;;;;;;;;;;;21.46;29.80;97617.88;5098431;28;940;-73
2023/05/16 12:52:28;;;;;;;;;;;;;;;21.77;29.50;97615.22;5058391;28;1012;-74
2023/05/16 12:54:54;;;;;;;;;;;;;;;22.00;29.57;97617.66;5041542;28;984;-74
2023/05/16 12:57:20;;;;;;;;;;;;;;;22.05;29.55;97619.13;5073755;28;1698;-74